sensor_id;sensor_type;location;lat;lon;timestamp;temperature;humidity
40534;DHT22;26233;51.894;10.192;2023-12-14T00:00:45;8.90;57.80
40534;DHT22;26233;51.894;10.192;2023-12-14T00:03:12;8.90;57.70
40534;DHT22;26233;51.894;10.192;2023-12-14T00:05:39;8.90;57.60
40534;DHT22;26233;51.894;10.192;2023-12-14T00:08:08;8.80;57.60
40534;DHT22;26233;51.894;10.192;2023-12-14T00:10:35;8.80;57.70
40534;DHT22;26233;51.894;10.192;2023-12-14T00:13:02;8.80;57.80
40534;DHT22;26233;51.894;10.192;2023-12-14T00:15:30;8.80;57.80
40534;DHT22;26233;51.894;10.192;2023-12-14T00:17:57;8.80;57.80
40534;DHT22;26233;51.894;10.192;2023-12-14T00:20:24;8.70;57.70
40534;DHT22;26233;51.894;10.192;2023-12-14T00:22:51;8.70;57.60
40534;DHT22;26233;51.894;10.192;2023-12-14T00:25:19;8.70;57.60
40534;DHT22;26233;51.894;10.192;2023-12-14T00:27:47;8.70;57.70
40534;DHT22;26233;51.894;10.192;2023-12-14T00:30:14;8.70;57.70
40534;DHT22;26233;51.894;10.192;2023-12-14T00:32:41;8.70;57.70
40534;DHT22;26233;51.894;10.192;2023-12-14T00:35:08;8.60;57.70
40534;DHT22;26233;51.894;10.192;2023-12-14T00:37:35;8.60;57.70
40534;DHT22;26233;51.894;10.192;2023-12-14T00:40:03;8.60;57.60
40534;DHT22;26233;51.894;10.192;2023-12-14T00:42:32;8.50;57.70
40534;DHT22;26233;51.894;10.192;2023-12-14T00:44:59;8.50;57.80
40534;DHT22;26233;51.894;10.192;2023-12-14T00:47:26;8.50;57.70
40534;DHT22;26233;51.894;10.192;2023-12-14T00:49:53;8.50;57.70
40534;DHT22;26233;51.894;10.192;2023-12-14T00:52:20;8.50;57.80
40534;DHT22;26233;51.894;10.192;2023-12-14T00:54:47;8.50;57.80
40534;DHT22;26233;51.894;10.192;2023-12-14T00:57:14;8.50;57.80
40534;DHT22;26233;51.894;10.192;2023-12-14T00:59:43;8.50;57.80
40534;DHT22;26233;51.894;10.192;2023-12-14T01:02:10;8.50;57.70
40534;DHT22;26233;51.894;10.192;2023-12-14T01:04:37;8.50;57.70
40534;DHT22;26233;51.894;10.192;2023-12-14T01:07:03;8.40;57.60
40534;DHT22;26233;51.894;10.192;2023-12-14T01:09:31;8.40;57.70
40534;DHT22;26233;51.894;10.192;2023-12-14T01:11:58;8.40;57.70
40534;DHT22;26233;51.894;10.192;2023-12-14T01:14:25;8.40;57.80
40534;DHT22;26233;51.894;10.192;2023-12-14T01:16:54;8.40;57.90
40534;DHT22;26233;51.894;10.192;2023-12-14T01:19:21;8.40;57.90
40534;DHT22;26233;51.894;10.192;2023-12-14T01:21:48;8.40;57.90
40534;DHT22;26233;51.894;10.192;2023-12-14T01:24:15;8.40;57.90
40534;DHT22;26233;51.894;10.192;2023-12-14T01:26:42;8.40;57.70
40534;DHT22;26233;51.894;10.192;2023-12-14T01:29:09;8.40;57.70
40534;DHT22;26233;51.894;10.192;2023-12-14T01:31:37;8.30;57.60
40534;DHT22;26233;51.894;10.192;2023-12-14T01:34:05;8.30;57.70
40534;DHT22;26233;51.894;10.192;2023-12-14T01:36:32;8.20;57.70
40534;DHT22;26233;51.894;10.192;2023-12-14T01:38:59;8.30;57.80
40534;DHT22;26233;51.894;10.192;2023-12-14T01:41:26;8.20;57.80
40534;DHT22;26233;51.894;10.192;2023-12-14T01:43:53;8.30;57.90
40534;DHT22;26233;51.894;10.192;2023-12-14T01:46:20;8.30;57.90
40534;DHT22;26233;51.894;10.192;2023-12-14T01:48:47;8.20;57.70
40534;DHT22;26233;51.894;10.192;2023-12-14T01:51:16;8.20;57.70
40534;DHT22;26233;51.894;10.192;2023-12-14T01:53:43;8.20;57.30
40534;DHT22;26233;51.894;10.192;2023-12-14T01:56:10;8.20;57.30
40534;DHT22;26233;51.894;10.192;2023-12-14T01:58:37;8.10;57.20
40534;DHT22;26233;51.894;10.192;2023-12-14T02:01:09;8.10;57.20
40534;DHT22;26233;51.894;10.192;2023-12-14T02:03:44;8.00;57.20
40534;DHT22;26233;51.894;10.192;2023-12-14T02:06:11;8.00;57.80
40534;DHT22;26233;51.894;10.192;2023-12-14T02:08:40;7.90;57.30
40534;DHT22;26233;51.894;10.192;2023-12-14T02:11:07;7.90;57.50
40534;DHT22;26233;51.894;10.192;2023-12-14T02:13:34;7.90;57.60
40534;DHT22;26233;51.894;10.192;2023-12-14T02:16:01;8.00;57.70
40534;DHT22;26233;51.894;10.192;2023-12-14T02:18:29;7.90;57.60
40534;DHT22;26233;51.894;10.192;2023-12-14T02:20:56;7.90;57.50
40534;DHT22;26233;51.894;10.192;2023-12-14T02:23:23;7.80;57.40
40534;DHT22;26233;51.894;10.192;2023-12-14T02:25:50;7.90;57.50
40534;DHT22;26233;51.894;10.192;2023-12-14T02:28:17;7.80;57.50
40534;DHT22;26233;51.894;10.192;2023-12-14T02:30:44;7.80;57.50
40534;DHT22;26233;51.894;10.192;2023-12-14T02:33:11;7.80;57.50
40534;DHT22;26233;51.894;10.192;2023-12-14T02:35:39;7.80;57.50
40534;DHT22;26233;51.894;10.192;2023-12-14T02:38:06;7.80;57.50
40534;DHT22;26233;51.894;10.192;2023-12-14T02:40:34;7.80;57.60
40534;DHT22;26233;51.894;10.192;2023-12-14T02:43:01;7.80;57.50
40534;DHT22;26233;51.894;10.192;2023-12-14T02:45:28;7.70;57.40
40534;DHT22;26233;51.894;10.192;2023-12-14T02:47:55;7.70;57.40
40534;DHT22;26233;51.894;10.192;2023-12-14T02:50:22;7.70;57.50
40534;DHT22;26233;51.894;10.192;2023-12-14T02:52:49;7.70;57.40
40534;DHT22;26233;51.894;10.192;2023-12-14T02:55:17;7.70;57.30
40534;DHT22;26233;51.894;10.192;2023-12-14T02:57:45;7.60;57.20
40534;DHT22;26233;51.894;10.192;2023-12-14T03:00:13;7.60;57.10
40534;DHT22;26233;51.894;10.192;2023-12-14T03:02:40;7.50;57.00
40534;DHT22;26233;51.894;10.192;2023-12-14T03:05:08;7.50;57.10
40534;DHT22;26233;51.894;10.192;2023-12-14T03:07:35;7.40;57.10
40534;DHT22;26233;51.894;10.192;2023-12-14T03:10:03;7.40;57.20
40534;DHT22;26233;51.894;10.192;2023-12-14T03:12:31;7.40;57.20
40534;DHT22;26233;51.894;10.192;2023-12-14T03:14:59;7.30;57.20
40534;DHT22;26233;51.894;10.192;2023-12-14T03:17:26;7.30;57.20
40534;DHT22;26233;51.894;10.192;2023-12-14T03:19:53;7.30;57.20
40534;DHT22;26233;51.894;10.192;2023-12-14T03:22:20;7.20;57.10
40534;DHT22;26233;51.894;10.192;2023-12-14T03:24:47;7.20;57.20
40534;DHT22;26233;51.894;10.192;2023-12-14T03:27:15;7.20;57.20
40534;DHT22;26233;51.894;10.192;2023-12-14T03:29:42;7.20;57.20
40534;DHT22;26233;51.894;10.192;2023-12-14T03:32:10;7.20;57.30
40534;DHT22;26233;51.894;10.192;2023-12-14T03:34:37;7.20;57.30
40534;DHT22;26233;51.894;10.192;2023-12-14T03:37:04;7.10;57.20
40534;DHT22;26233;51.894;10.192;2023-12-14T03:39:31;7.10;57.10
40534;DHT22;26233;51.894;10.192;2023-12-14T03:41:58;7.10;57.10
40534;DHT22;26233;51.894;10.192;2023-12-14T03:44:25;7.00;57.00
40534;DHT22;26233;51.894;10.192;2023-12-14T03:46:53;7.00;57.10
40534;DHT22;26233;51.894;10.192;2023-12-14T03:49:22;6.90;57.10
40534;DHT22;26233;51.894;10.192;2023-12-14T03:51:49;6.90;57.10
40534;DHT22;26233;51.894;10.192;2023-12-14T03:54:16;6.90;57.10
40534;DHT22;26233;51.894;10.192;2023-12-14T03:56:44;6.90;57.20
40534;DHT22;26233;51.894;10.192;2023-12-14T03:59:11;6.90;57.30
40534;DHT22;26233;51.894;10.192;2023-12-14T04:01:39;6.90;57.30
40534;DHT22;26233;51.894;10.192;2023-12-14T04:04:06;6.80;57.20
40534;DHT22;26233;51.894;10.192;2023-12-14T04:06:36;6.80;57.30
40534;DHT22;26233;51.894;10.192;2023-12-14T04:09:03;6.80;57.40
40534;DHT22;26233;51.894;10.192;2023-12-14T04:11:30;6.80;57.50
40534;DHT22;26233;51.894;10.192;2023-12-14T04:13:58;6.80;57.50
40534;DHT22;26233;51.894;10.192;2023-12-14T04:16:25;6.80;57.50
40534;DHT22;26233;51.894;10.192;2023-12-14T04:18:52;6.80;57.30
40534;DHT22;26233;51.894;10.192;2023-12-14T04:21:19;6.80;57.30
40534;DHT22;26233;51.894;10.192;2023-12-14T04:23:48;6.80;57.20
40534;DHT22;26233;51.894;10.192;2023-12-14T04:26:15;6.80;57.30
40534;DHT22;26233;51.894;10.192;2023-12-14T04:28:42;6.80;57.40
40534;DHT22;26233;51.894;10.192;2023-12-14T04:31:11;6.70;57.20
40534;DHT22;26233;51.894;10.192;2023-12-14T04:33:38;6.80;57.40
40534;DHT22;26233;51.894;10.192;2023-12-14T04:36:06;6.70;57.40
40534;DHT22;26233;51.894;10.192;2023-12-14T04:38:33;6.70;57.40
40534;DHT22;26233;51.894;10.192;2023-12-14T04:41:02;6.70;57.40
40534;DHT22;26233;51.894;10.192;2023-12-14T04:43:29;6.70;57.50
40534;DHT22;26233;51.894;10.192;2023-12-14T04:45:57;6.70;57.50
40534;DHT22;26233;51.894;10.192;2023-12-14T04:48:24;6.70;57.50
40534;DHT22;26233;51.894;10.192;2023-12-14T04:50:51;6.70;57.50
40534;DHT22;26233;51.894;10.192;2023-12-14T04:53:19;6.80;57.70
40534;DHT22;26233;51.894;10.192;2023-12-14T04:55:46;6.80;57.60
40534;DHT22;26233;51.894;10.192;2023-12-14T04:58:14;6.70;57.90
40534;DHT22;26233;51.894;10.192;2023-12-14T05:00:41;6.80;57.30
40534;DHT22;26233;51.894;10.192;2023-12-14T05:03:09;6.70;57.20
40534;DHT22;26233;51.894;10.192;2023-12-14T05:05:36;6.70;57.30
40534;DHT22;26233;51.894;10.192;2023-12-14T05:08:03;6.70;57.30
40534;DHT22;26233;51.894;10.192;2023-12-14T05:10:30;6.70;57.40
40534;DHT22;26233;51.894;10.192;2023-12-14T05:12:58;6.60;57.20
40534;DHT22;26233;51.894;10.192;2023-12-14T05:15:26;6.60;57.20
40534;DHT22;26233;51.894;10.192;2023-12-14T05:17:53;6.60;57.30
40534;DHT22;26233;51.894;10.192;2023-12-14T05:20:20;6.60;57.20
40534;DHT22;26233;51.894;10.192;2023-12-14T05:22:47;6.60;57.20
40534;DHT22;26233;51.894;10.192;2023-12-14T05:25:14;6.50;57.20
40534;DHT22;26233;51.894;10.192;2023-12-14T05:27:41;6.50;57.20
40534;DHT22;26233;51.894;10.192;2023-12-14T05:30:09;6.50;57.20
40534;DHT22;26233;51.894;10.192;2023-12-14T05:32:38;6.50;57.20
40534;DHT22;26233;51.894;10.192;2023-12-14T05:35:06;6.50;57.20
40534;DHT22;26233;51.894;10.192;2023-12-14T05:37:33;6.50;57.20
40534;DHT22;26233;51.894;10.192;2023-12-14T05:40:00;6.40;57.20
40534;DHT22;26233;51.894;10.192;2023-12-14T05:42:27;6.50;57.20
40534;DHT22;26233;51.894;10.192;2023-12-14T05:44:55;6.40;57.20
40534;DHT22;26233;51.894;10.192;2023-12-14T05:47:22;6.40;57.20
40534;DHT22;26233;51.894;10.192;2023-12-14T05:49:52;6.40;57.20
40534;DHT22;26233;51.894;10.192;2023-12-14T05:52:19;6.40;57.20
40534;DHT22;26233;51.894;10.192;2023-12-14T05:54:46;6.40;57.20
40534;DHT22;26233;51.894;10.192;2023-12-14T05:57:13;6.40;57.20
40534;DHT22;26233;51.894;10.192;2023-12-14T05:59:40;6.30;57.10
40534;DHT22;26233;51.894;10.192;2023-12-14T06:02:07;6.30;57.10
40534;DHT22;26233;51.894;10.192;2023-12-14T06:04:34;6.20;57.10
40534;DHT22;26233;51.894;10.192;2023-12-14T06:07:03;6.20;57.20
40534;DHT22;26233;51.894;10.192;2023-12-14T06:09:30;6.20;57.20
40534;DHT22;26233;51.894;10.192;2023-12-14T06:11:59;6.20;57.30
40534;DHT22;26233;51.894;10.192;2023-12-14T06:14:27;6.20;57.90
40534;DHT22;26233;51.894;10.192;2023-12-14T06:16:54;6.20;57.40
40534;DHT22;26233;51.894;10.192;2023-12-14T06:19:22;6.20;57.60
40534;DHT22;26233;51.894;10.192;2023-12-14T06:21:49;6.30;57.80
40534;DHT22;26233;51.894;10.192;2023-12-14T06:24:17;6.30;57.80
40534;DHT22;26233;51.894;10.192;2023-12-14T06:26:46;6.40;57.90
40534;DHT22;26233;51.894;10.192;2023-12-14T06:29:13;6.40;57.90
40534;DHT22;26233;51.894;10.192;2023-12-14T06:31:40;6.50;57.80
40534;DHT22;26233;51.894;10.192;2023-12-14T06:34:07;6.50;57.60
40534;DHT22;26233;51.894;10.192;2023-12-14T06:36:34;6.50;57.60
40534;DHT22;26233;51.894;10.192;2023-12-14T06:39:02;6.50;57.50
40534;DHT22;26233;51.894;10.192;2023-12-14T06:41:31;6.50;57.60
40534;DHT22;26233;51.894;10.192;2023-12-14T06:43:58;6.60;57.50
40534;DHT22;26233;51.894;10.192;2023-12-14T06:46:25;6.60;57.50
40534;DHT22;26233;51.894;10.192;2023-12-14T06:48:52;6.60;57.50
40534;DHT22;26233;51.894;10.192;2023-12-14T06:51:21;6.60;57.30
40534;DHT22;26233;51.894;10.192;2023-12-14T06:53:48;6.60;57.20
40534;DHT22;26233;51.894;10.192;2023-12-14T06:56:15;6.50;57.00
40534;DHT22;26233;51.894;10.192;2023-12-14T06:58:44;6.50;57.00
40534;DHT22;26233;51.894;10.192;2023-12-14T07:01:15;6.50;57.00
40534;DHT22;26233;51.894;10.192;2023-12-14T07:03:43;6.40;57.00
40534;DHT22;26233;51.894;10.192;2023-12-14T07:06:12;6.40;57.70
40534;DHT22;26233;51.894;10.192;2023-12-14T07:08:39;6.40;57.10
40534;DHT22;26233;51.894;10.192;2023-12-14T07:11:07;6.30;57.10
40534;DHT22;26233;51.894;10.192;2023-12-14T07:13:34;6.30;57.10
40534;DHT22;26233;51.894;10.192;2023-12-14T07:16:05;6.30;57.20
40534;DHT22;26233;51.894;10.192;2023-12-14T07:18:34;6.30;57.30
40534;DHT22;26233;51.894;10.192;2023-12-14T07:21:01;6.30;57.40
40534;DHT22;26233;51.894;10.192;2023-12-14T07:23:29;6.30;57.50
40534;DHT22;26233;51.894;10.192;2023-12-14T07:25:56;6.30;57.50
40534;DHT22;26233;51.894;10.192;2023-12-14T07:28:23;6.30;57.50
40534;DHT22;26233;51.894;10.192;2023-12-14T07:30:50;6.30;57.50
40534;DHT22;26233;51.894;10.192;2023-12-14T07:33:18;6.30;57.50
40534;DHT22;26233;51.894;10.192;2023-12-14T07:35:45;6.30;57.50
40534;DHT22;26233;51.894;10.192;2023-12-14T07:38:13;6.40;57.60
40534;DHT22;26233;51.894;10.192;2023-12-14T07:40:40;6.30;57.50
40534;DHT22;26233;51.894;10.192;2023-12-14T07:43:08;6.40;57.70
40534;DHT22;26233;51.894;10.192;2023-12-14T07:45:35;6.40;57.60
40534;DHT22;26233;51.894;10.192;2023-12-14T07:48:02;6.40;58.30
40534;DHT22;26233;51.894;10.192;2023-12-14T07:50:31;6.40;57.80
40534;DHT22;26233;51.894;10.192;2023-12-14T07:52:58;6.50;58.00
40534;DHT22;26233;51.894;10.192;2023-12-14T07:55:25;6.50;58.00
40534;DHT22;26233;51.894;10.192;2023-12-14T07:57:53;6.50;57.90
40534;DHT22;26233;51.894;10.192;2023-12-14T08:00:20;6.60;58.00
40534;DHT22;26233;51.894;10.192;2023-12-14T08:02:47;6.60;58.50
40534;DHT22;26233;51.894;10.192;2023-12-14T08:05:14;6.70;58.00
40534;DHT22;26233;51.894;10.192;2023-12-14T08:07:43;6.70;58.00
40534;DHT22;26233;51.894;10.192;2023-12-14T08:10:10;6.70;57.80
40534;DHT22;26233;51.894;10.192;2023-12-14T08:12:37;6.70;57.80
40534;DHT22;26233;51.894;10.192;2023-12-14T08:15:05;6.70;57.80
40534;DHT22;26233;51.894;10.192;2023-12-14T08:17:33;6.80;57.90
40534;DHT22;26233;51.894;10.192;2023-12-14T08:20:00;6.80;58.00
40534;DHT22;26233;51.894;10.192;2023-12-14T08:22:30;6.80;57.90
40534;DHT22;26233;51.894;10.192;2023-12-14T08:24:58;6.80;57.90
40534;DHT22;26233;51.894;10.192;2023-12-14T08:27:25;6.90;58.00
40534;DHT22;26233;51.894;10.192;2023-12-14T08:29:52;6.90;57.80
40534;DHT22;26233;51.894;10.192;2023-12-14T08:32:19;6.90;57.70
40534;DHT22;26233;51.894;10.192;2023-12-14T08:34:46;6.90;57.60
40534;DHT22;26233;51.894;10.192;2023-12-14T08:37:14;6.90;57.60
40534;DHT22;26233;51.894;10.192;2023-12-14T08:39:41;6.90;57.60
40534;DHT22;26233;51.894;10.192;2023-12-14T08:42:09;6.90;57.50
40534;DHT22;26233;51.894;10.192;2023-12-14T08:44:38;6.90;57.60
40534;DHT22;26233;51.894;10.192;2023-12-14T08:47:06;6.90;57.40
40534;DHT22;26233;51.894;10.192;2023-12-14T08:49:34;6.90;57.30
40534;DHT22;26233;51.894;10.192;2023-12-14T08:52:02;6.80;57.40
40534;DHT22;26233;51.894;10.192;2023-12-14T08:54:30;6.90;57.50
40534;DHT22;26233;51.894;10.192;2023-12-14T08:56:57;6.90;57.40
40534;DHT22;26233;51.894;10.192;2023-12-14T08:59:28;6.80;57.30
40534;DHT22;26233;51.894;10.192;2023-12-14T09:01:55;6.80;57.40
40534;DHT22;26233;51.894;10.192;2023-12-14T09:04:22;6.80;57.50
40534;DHT22;26233;51.894;10.192;2023-12-14T09:06:49;6.80;57.60
40534;DHT22;26233;51.894;10.192;2023-12-14T09:09:17;6.80;57.60
40534;DHT22;26233;51.894;10.192;2023-12-14T09:11:44;6.80;57.50
40534;DHT22;26233;51.894;10.192;2023-12-14T09:14:12;6.80;57.60
40534;DHT22;26233;51.894;10.192;2023-12-14T09:16:40;6.80;57.60
40534;DHT22;26233;51.894;10.192;2023-12-14T09:19:08;6.80;57.60
40534;DHT22;26233;51.894;10.192;2023-12-14T09:21:35;6.80;57.60
40534;DHT22;26233;51.894;10.192;2023-12-14T09:24:02;6.80;57.60
40534;DHT22;26233;51.894;10.192;2023-12-14T09:26:30;6.80;57.60
40534;DHT22;26233;51.894;10.192;2023-12-14T09:28:57;6.80;57.60
40534;DHT22;26233;51.894;10.192;2023-12-14T09:31:24;6.80;58.00
40534;DHT22;26233;51.894;10.192;2023-12-14T09:33:52;6.80;57.40
40534;DHT22;26233;51.894;10.192;2023-12-14T09:36:19;6.70;57.40
40534;DHT22;26233;51.894;10.192;2023-12-14T09:38:46;6.70;57.40
40534;DHT22;26233;51.894;10.192;2023-12-14T09:41:13;6.70;57.50
40534;DHT22;26233;51.894;10.192;2023-12-14T09:43:40;6.70;57.60
40534;DHT22;26233;51.894;10.192;2023-12-14T09:46:09;6.80;57.70
40534;DHT22;26233;51.894;10.192;2023-12-14T09:48:37;6.80;57.60
40534;DHT22;26233;51.894;10.192;2023-12-14T09:51:06;6.80;57.60
40534;DHT22;26233;51.894;10.192;2023-12-14T09:53:33;6.80;57.60
40534;DHT22;26233;51.894;10.192;2023-12-14T09:56:00;6.80;57.50
40534;DHT22;26233;51.894;10.192;2023-12-14T09:58:27;6.70;57.40
40534;DHT22;26233;51.894;10.192;2023-12-14T10:00:58;6.70;57.50
40534;DHT22;26233;51.894;10.192;2023-12-14T10:03:27;6.70;57.40
40534;DHT22;26233;51.894;10.192;2023-12-14T10:05:55;6.80;57.50
40534;DHT22;26233;51.894;10.192;2023-12-14T10:08:26;6.70;57.10
40534;DHT22;26233;51.894;10.192;2023-12-14T10:10:54;6.60;57.00
40534;DHT22;26233;51.894;10.192;2023-12-14T10:13:35;6.60;57.20
40534;DHT22;26233;51.894;10.192;2023-12-14T10:16:04;6.60;57.30
40534;DHT22;26233;51.894;10.192;2023-12-14T10:18:32;6.60;57.40
40534;DHT22;26233;51.894;10.192;2023-12-14T10:21:01;6.60;57.50
40534;DHT22;26233;51.894;10.192;2023-12-14T10:23:29;6.60;57.60
40534;DHT22;26233;51.894;10.192;2023-12-14T10:25:57;6.60;57.70
40534;DHT22;26233;51.894;10.192;2023-12-14T10:28:24;6.60;57.70
40534;DHT22;26233;51.894;10.192;2023-12-14T10:30:52;6.60;57.70
40534;DHT22;26233;51.894;10.192;2023-12-14T10:33:19;6.60;57.60
40534;DHT22;26233;51.894;10.192;2023-12-14T10:35:46;6.70;57.70
40534;DHT22;26233;51.894;10.192;2023-12-14T10:38:15;6.60;57.50
40534;DHT22;26233;51.894;10.192;2023-12-14T10:40:45;6.70;57.70
40534;DHT22;26233;51.894;10.192;2023-12-14T10:43:13;6.70;57.70
40534;DHT22;26233;51.894;10.192;2023-12-14T10:45:43;6.70;57.70
40534;DHT22;26233;51.894;10.192;2023-12-14T10:48:15;6.70;57.70
40534;DHT22;26233;51.894;10.192;2023-12-14T10:50:46;6.70;57.70
40534;DHT22;26233;51.894;10.192;2023-12-14T10:53:15;6.70;57.70
40534;DHT22;26233;51.894;10.192;2023-12-14T10:55:44;6.80;57.90
40534;DHT22;26233;51.894;10.192;2023-12-14T10:58:12;6.80;57.70
40534;DHT22;26233;51.894;10.192;2023-12-14T11:00:39;6.70;57.60
40534;DHT22;26233;51.894;10.192;2023-12-14T11:03:12;6.80;57.60
40534;DHT22;26233;51.894;10.192;2023-12-14T11:05:40;6.80;57.50
40534;DHT22;26233;51.894;10.192;2023-12-14T11:08:07;6.80;57.60
40534;DHT22;26233;51.894;10.192;2023-12-14T11:10:40;6.80;57.60
40534;DHT22;26233;51.894;10.192;2023-12-14T11:13:10;6.80;57.60
40534;DHT22;26233;51.894;10.192;2023-12-14T11:15:40;6.80;57.60
40534;DHT22;26233;51.894;10.192;2023-12-14T11:18:21;6.90;57.70
40534;DHT22;26233;51.894;10.192;2023-12-14T11:20:48;6.90;57.70
40534;DHT22;26233;51.894;10.192;2023-12-14T11:23:17;6.90;57.70
40534;DHT22;26233;51.894;10.192;2023-12-14T11:25:53;6.90;57.70
40534;DHT22;26233;51.894;10.192;2023-12-14T11:28:22;6.90;57.60
40534;DHT22;26233;51.894;10.192;2023-12-14T11:30:49;6.90;57.60
40534;DHT22;26233;51.894;10.192;2023-12-14T11:33:16;7.00;57.60
40534;DHT22;26233;51.894;10.192;2023-12-14T11:35:43;7.00;57.70
40534;DHT22;26233;51.894;10.192;2023-12-14T11:38:11;7.00;57.60
40534;DHT22;26233;51.894;10.192;2023-12-14T11:40:39;7.00;57.50
40534;DHT22;26233;51.894;10.192;2023-12-14T11:43:06;7.00;57.50
40534;DHT22;26233;51.894;10.192;2023-12-14T11:45:36;7.00;57.50
40534;DHT22;26233;51.894;10.192;2023-12-14T11:48:04;7.00;57.50
40534;DHT22;26233;51.894;10.192;2023-12-14T11:50:31;7.00;57.60
40534;DHT22;26233;51.894;10.192;2023-12-14T11:53:00;7.00;57.60
40534;DHT22;26233;51.894;10.192;2023-12-14T11:55:29;7.00;57.30
40534;DHT22;26233;51.894;10.192;2023-12-14T11:57:57;7.00;57.40
40534;DHT22;26233;51.894;10.192;2023-12-14T12:00:25;7.00;57.50
40534;DHT22;26233;51.894;10.192;2023-12-14T12:03:08;7.00;57.70
40534;DHT22;26233;51.894;10.192;2023-12-14T12:05:39;7.00;57.60
40534;DHT22;26233;51.894;10.192;2023-12-14T12:08:09;7.00;57.80
40534;DHT22;26233;51.894;10.192;2023-12-14T12:10:38;7.10;57.80
40534;DHT22;26233;51.894;10.192;2023-12-14T12:13:12;7.10;57.70
40534;DHT22;26233;51.894;10.192;2023-12-14T12:15:41;7.10;57.70
40534;DHT22;26233;51.894;10.192;2023-12-14T12:18:10;7.10;57.70
40534;DHT22;26233;51.894;10.192;2023-12-14T12:20:39;7.10;57.60
40534;DHT22;26233;51.894;10.192;2023-12-14T12:23:06;7.10;57.40
40534;DHT22;26233;51.894;10.192;2023-12-14T12:25:34;7.10;57.30
40534;DHT22;26233;51.894;10.192;2023-12-14T12:28:02;7.10;57.40
40534;DHT22;26233;51.894;10.192;2023-12-14T12:30:30;7.00;57.20
40534;DHT22;26233;51.894;10.192;2023-12-14T12:32:57;7.00;57.20
40534;DHT22;26233;51.894;10.192;2023-12-14T12:35:26;7.00;57.20
40534;DHT22;26233;51.894;10.192;2023-12-14T12:37:55;7.00;57.30
40534;DHT22;26233;51.894;10.192;2023-12-14T12:40:23;7.00;57.30
40534;DHT22;26233;51.894;10.192;2023-12-14T12:42:51;6.90;57.20
40534;DHT22;26233;51.894;10.192;2023-12-14T12:45:18;7.00;57.40
40534;DHT22;26233;51.894;10.192;2023-12-14T12:47:48;6.90;57.30
40534;DHT22;26233;51.894;10.192;2023-12-14T12:50:15;7.00;57.40
40534;DHT22;26233;51.894;10.192;2023-12-14T12:52:43;7.00;57.30
40534;DHT22;26233;51.894;10.192;2023-12-14T12:55:14;7.00;57.40
40534;DHT22;26233;51.894;10.192;2023-12-14T12:57:41;6.90;57.30
40534;DHT22;26233;51.894;10.192;2023-12-14T13:00:09;6.90;57.20
40534;DHT22;26233;51.894;10.192;2023-12-14T13:02:37;6.90;57.30
40534;DHT22;26233;51.894;10.192;2023-12-14T13:05:06;7.00;57.40
40534;DHT22;26233;51.894;10.192;2023-12-14T13:07:34;6.90;57.30
40534;DHT22;26233;51.894;10.192;2023-12-14T13:10:04;6.90;57.30
40534;DHT22;26233;51.894;10.192;2023-12-14T13:12:32;6.90;57.20
40534;DHT22;26233;51.894;10.192;2023-12-14T13:15:00;6.90;57.30
40534;DHT22;26233;51.894;10.192;2023-12-14T13:17:27;6.90;57.40
40534;DHT22;26233;51.894;10.192;2023-12-14T13:19:54;7.00;57.50
40534;DHT22;26233;51.894;10.192;2023-12-14T13:22:21;7.00;57.50
40534;DHT22;26233;51.894;10.192;2023-12-14T13:24:48;7.00;57.40
40534;DHT22;26233;51.894;10.192;2023-12-14T13:27:17;7.00;57.40
40534;DHT22;26233;51.894;10.192;2023-12-14T13:29:44;7.00;57.40
40534;DHT22;26233;51.894;10.192;2023-12-14T13:32:11;7.00;57.40
40534;DHT22;26233;51.894;10.192;2023-12-14T13:34:38;7.00;57.20
40534;DHT22;26233;51.894;10.192;2023-12-14T13:37:05;7.00;57.10
40534;DHT22;26233;51.894;10.192;2023-12-14T13:39:34;7.00;56.90
40534;DHT22;26233;51.894;10.192;2023-12-14T13:42:04;7.00;56.90
40534;DHT22;26233;51.894;10.192;2023-12-14T13:44:33;7.00;57.00
40534;DHT22;26233;51.894;10.192;2023-12-14T13:47:00;6.90;56.70
40534;DHT22;26233;51.894;10.192;2023-12-14T13:49:27;6.90;56.70
40534;DHT22;26233;51.894;10.192;2023-12-14T13:51:54;6.80;56.60
40534;DHT22;26233;51.894;10.192;2023-12-14T13:54:23;6.70;56.60
40534;DHT22;26233;51.894;10.192;2023-12-14T13:56:50;6.70;56.70
40534;DHT22;26233;51.894;10.192;2023-12-14T13:59:18;6.70;56.80
40534;DHT22;26233;51.894;10.192;2023-12-14T14:01:47;6.60;56.80
40534;DHT22;26233;51.894;10.192;2023-12-14T14:04:16;6.60;57.50
40534;DHT22;26233;51.894;10.192;2023-12-14T14:06:43;6.60;57.10
40534;DHT22;26233;51.894;10.192;2023-12-14T14:09:11;6.60;57.20
40534;DHT22;26233;51.894;10.192;2023-12-14T14:11:39;6.60;57.20
40534;DHT22;26233;51.894;10.192;2023-12-14T14:14:11;6.60;57.30
40534;DHT22;26233;51.894;10.192;2023-12-14T14:16:38;6.60;57.40
40534;DHT22;26233;51.894;10.192;2023-12-14T14:19:06;6.60;57.30
40534;DHT22;26233;51.894;10.192;2023-12-14T14:21:33;6.70;57.30
40534;DHT22;26233;51.894;10.192;2023-12-14T14:24:00;6.70;57.30
40534;DHT22;26233;51.894;10.192;2023-12-14T14:26:27;6.70;57.40
40534;DHT22;26233;51.894;10.192;2023-12-14T14:28:54;6.70;57.40
40534;DHT22;26233;51.894;10.192;2023-12-14T14:31:25;6.70;57.40
40534;DHT22;26233;51.894;10.192;2023-12-14T14:33:55;6.70;57.40
40534;DHT22;26233;51.894;10.192;2023-12-14T14:36:24;6.70;57.30
40534;DHT22;26233;51.894;10.192;2023-12-14T14:38:51;6.70;57.30
40534;DHT22;26233;51.894;10.192;2023-12-14T14:41:20;6.70;57.30
40534;DHT22;26233;51.894;10.192;2023-12-14T14:43:47;6.60;57.30
40534;DHT22;26233;51.894;10.192;2023-12-14T14:46:14;6.70;57.40
40534;DHT22;26233;51.894;10.192;2023-12-14T14:48:42;6.80;57.60
40534;DHT22;26233;51.894;10.192;2023-12-14T14:51:10;6.70;57.90
40534;DHT22;26233;51.894;10.192;2023-12-14T14:53:38;6.80;57.90
40534;DHT22;26233;51.894;10.192;2023-12-14T14:56:08;6.80;57.30
40534;DHT22;26233;51.894;10.192;2023-12-14T14:58:36;6.80;57.30
40534;DHT22;26233;51.894;10.192;2023-12-14T15:01:03;6.80;57.40
40534;DHT22;26233;51.894;10.192;2023-12-14T15:03:30;6.80;57.50
40534;DHT22;26233;51.894;10.192;2023-12-14T15:05:57;6.80;57.50
40534;DHT22;26233;51.894;10.192;2023-12-14T15:08:24;6.80;57.40
40534;DHT22;26233;51.894;10.192;2023-12-14T15:10:53;6.80;57.40
40534;DHT22;26233;51.894;10.192;2023-12-14T15:13:21;6.80;57.40
40534;DHT22;26233;51.894;10.192;2023-12-14T15:15:48;6.80;57.40
40534;DHT22;26233;51.894;10.192;2023-12-14T15:18:15;6.70;57.30
40534;DHT22;26233;51.894;10.192;2023-12-14T15:20:42;6.70;57.30
40534;DHT22;26233;51.894;10.192;2023-12-14T15:23:10;6.80;57.40
40534;DHT22;26233;51.894;10.192;2023-12-14T15:25:37;6.80;57.50
40534;DHT22;26233;51.894;10.192;2023-12-14T15:28:06;6.80;57.60
40534;DHT22;26233;51.894;10.192;2023-12-14T15:30:33;6.80;57.50
40534;DHT22;26233;51.894;10.192;2023-12-14T15:33:00;6.80;57.50